createdAt,value
2018-11-12T00:00:04.357Z,10.52
2018-11-12T00:02:32.514Z,10.63
2018-11-12T00:05:00.671Z,10.67
2018-11-12T00:07:28.807Z,10.67
2018-11-12T00:09:56.946Z,10.65
2018-11-12T00:12:25.095Z,10.69
2018-11-12T00:14:53.203Z,10.64
2018-11-12T00:17:21.327Z,10.72
2018-11-12T00:19:49.483Z,10.67
2018-11-12T00:22:17.609Z,10.76
2018-11-12T00:24:45.762Z,10.77
2018-11-12T00:27:13.913Z,10.78
2018-11-12T00:29:42.050Z,10.76
2018-11-12T00:32:10.139Z,10.81
2018-11-12T00:34:38.591Z,10.79
2018-11-12T00:37:06.694Z,10.82
2018-11-12T00:39:34.801Z,10.75
2018-11-12T00:42:02.917Z,10.81
2018-11-12T00:44:31.072Z,10.81
2018-11-12T00:46:59.187Z,10.72
2018-11-12T00:50:30.772Z,10.79
2018-11-12T00:52:58.936Z,10.78
2018-11-12T00:55:27.094Z,10.75
2018-11-12T00:57:55.221Z,10.73
2018-11-12T01:00:23.348Z,10.65
2018-11-12T01:02:51.438Z,10.67
2018-11-12T01:05:20.093Z,10.67
2018-11-12T01:07:48.672Z,10.65
2018-11-12T01:10:17.782Z,10.64
2018-11-12T01:12:46.176Z,10.60
2018-11-12T01:15:15.566Z,10.59
2018-11-12T01:17:44.047Z,10.58
2018-11-12T01:20:13.471Z,10.59
2018-11-12T01:22:41.667Z,10.58
2018-11-12T01:25:11.067Z,10.54
2018-11-12T01:27:39.938Z,10.53
2018-11-12T01:30:10.060Z,10.49
2018-11-12T01:32:38.252Z,10.49
2018-11-12T01:35:07.270Z,10.48
2018-11-12T01:37:35.412Z,10.47
2018-11-12T01:40:03.572Z,10.45
2018-11-12T01:42:31.705Z,10.36
2018-11-12T01:44:59.845Z,10.27
2018-11-12T01:47:27.994Z,10.27
2018-11-12T01:49:56.113Z,10.26
2018-11-12T01:52:24.200Z,10.24
2018-11-12T01:54:52.345Z,10.23
2018-11-12T01:57:20.613Z,10.21
2018-11-12T01:59:48.712Z,10.21
2018-11-12T02:02:16.802Z,10.07
2018-11-12T02:04:45.008Z,10.08
2018-11-12T02:07:13.085Z,10.06
2018-11-12T02:09:41.213Z,9.98
2018-11-12T02:12:09.340Z,10.07
2018-11-12T02:14:37.587Z,10.03
2018-11-12T02:17:05.777Z,10.19
2018-11-12T02:19:33.925Z,10.24
2018-11-12T02:22:02.062Z,10.12
2018-11-12T02:24:30.234Z,10.10
2018-11-12T02:26:58.405Z,9.98
2018-11-12T02:29:26.587Z,9.94
2018-11-12T02:31:54.726Z,9.89
2018-11-12T02:34:22.860Z,9.91
2018-11-12T02:36:51.010Z,9.85
2018-11-12T02:39:19.089Z,9.86
2018-11-12T02:41:47.227Z,9.86
2018-11-12T02:44:15.356Z,9.84
2018-11-12T02:46:43.473Z,9.83
2018-11-12T02:49:11.609Z,9.83
2018-11-12T02:51:39.777Z,9.85
2018-11-12T02:54:07.993Z,9.73
2018-11-12T02:56:36.166Z,9.82
2018-11-12T02:59:04.334Z,9.84
2018-11-12T03:01:32.468Z,9.75
2018-11-12T03:04:00.597Z,9.77
2018-11-12T03:06:28.754Z,9.73
2018-11-12T03:08:56.886Z,9.81
2018-11-12T03:11:25.001Z,9.77
2018-11-12T03:13:53.157Z,9.85
2018-11-12T03:16:21.266Z,9.85
2018-11-12T03:18:49.421Z,9.86
2018-11-12T03:21:17.535Z,9.75
2018-11-12T03:23:46.302Z,9.75
2018-11-12T03:26:14.453Z,9.77
2018-11-12T03:28:43.384Z,9.77
2018-11-12T03:31:11.542Z,9.75
2018-11-12T03:33:39.690Z,9.80
2018-11-12T03:36:07.833Z,9.80
2018-11-12T03:38:35.981Z,9.84
2018-11-12T03:41:04.391Z,9.87
2018-11-12T03:43:32.501Z,9.79
2018-11-12T03:46:00.669Z,9.81
2018-11-12T03:48:28.798Z,9.79
2018-11-12T03:50:56.929Z,9.82
2018-11-12T03:53:25.005Z,9.81
2018-11-12T03:55:53.095Z,9.81
2018-11-12T03:58:21.189Z,9.81
2018-11-12T04:00:49.318Z,9.79
2018-11-12T04:03:17.442Z,9.81
2018-11-12T04:05:45.584Z,9.83
2018-11-12T04:08:13.708Z,9.82
2018-11-12T04:10:41.828Z,9.86
2018-11-12T04:13:09.986Z,9.90
2018-11-12T04:15:38.108Z,9.92
2018-11-12T04:18:06.229Z,9.89
2018-11-12T04:20:34.362Z,9.87
2018-11-12T04:23:03.549Z,9.92
2018-11-12T04:25:32.489Z,9.91
2018-11-12T04:28:00.693Z,9.96
2018-11-12T04:30:28.781Z,9.98
2018-11-12T04:32:56.877Z,10.04
2018-11-12T04:35:24.987Z,10.08
2018-11-12T04:37:53.123Z,10.07
2018-11-12T04:40:21.252Z,10.13
2018-11-12T04:42:49.682Z,10.21
2018-11-12T04:45:18.915Z,10.24
2018-11-12T04:47:47.879Z,10.31
2018-11-12T04:50:18.893Z,10.33
2018-11-12T04:52:47.115Z,10.38
2018-11-12T04:55:16.563Z,10.41
2018-11-12T04:57:45.133Z,10.46
2018-11-12T05:00:19.564Z,10.52
2018-11-12T05:02:47.700Z,10.33
2018-11-12T05:05:17.120Z,10.40
2018-11-12T05:07:45.596Z,10.43
2018-11-12T05:10:14.997Z,10.48
2018-11-12T05:12:44.625Z,10.39
2018-11-12T05:15:14.572Z,10.32
2018-11-12T05:17:42.786Z,10.26
2018-11-12T05:20:13.472Z,10.20
2018-11-12T05:22:41.622Z,10.20
2018-11-12T05:25:09.931Z,10.21
2018-11-12T05:27:38.092Z,10.17
2018-11-12T05:30:11.105Z,10.24
2018-11-12T05:32:39.217Z,10.33
2018-11-12T05:35:07.369Z,10.25
2018-11-12T05:37:35.799Z,10.21
2018-11-12T05:40:04.646Z,10.19
2018-11-12T05:42:32.817Z,10.33
2018-11-12T05:45:01.021Z,10.36
2018-11-12T05:47:29.106Z,10.43
2018-11-12T05:49:57.244Z,10.57
2018-11-12T05:52:25.349Z,10.51
2018-11-12T05:54:53.530Z,10.50
2018-11-12T05:57:21.669Z,10.59
2018-11-12T05:59:49.845Z,10.52
2018-11-12T06:02:18.016Z,10.46
2018-11-12T06:04:46.248Z,10.54
2018-11-12T06:07:14.710Z,10.52
2018-11-12T06:09:42.875Z,10.45
2018-11-12T06:12:11.028Z,10.46
2018-11-12T06:14:39.248Z,10.52
2018-11-12T06:17:07.393Z,10.52
2018-11-12T06:19:35.517Z,10.51
2018-11-12T06:22:03.771Z,10.41
2018-11-12T06:24:31.932Z,10.51
2018-11-12T06:27:00.113Z,10.48
2018-11-12T06:29:28.386Z,10.54
2018-11-12T06:31:56.528Z,10.54
2018-11-12T06:34:24.653Z,10.62
2018-11-12T06:36:52.863Z,10.68
2018-11-12T06:39:20.980Z,10.64
2018-11-12T06:41:49.130Z,10.60
2018-11-12T06:44:17.244Z,10.69
2018-11-12T06:46:45.402Z,10.60
2018-11-12T06:49:14.138Z,10.57
2018-11-12T06:51:42.361Z,10.52
2018-11-12T06:54:10.497Z,10.52
2018-11-12T06:56:38.598Z,10.58
2018-11-12T06:59:06.714Z,10.63
2018-11-12T07:01:34.882Z,10.68
2018-11-12T07:04:03.038Z,10.75
2018-11-12T07:06:31.363Z,10.75
2018-11-12T07:08:59.785Z,10.61
2018-11-12T07:11:27.968Z,10.68
2018-11-12T07:13:56.993Z,10.70
2018-11-12T07:16:25.760Z,10.66
2018-11-12T07:18:55.309Z,10.62
2018-11-12T07:21:24.702Z,10.69
2018-11-12T07:23:52.982Z,10.75
2018-11-12T07:26:21.250Z,10.75
2018-11-12T07:28:49.357Z,10.79
2018-11-12T07:31:17.551Z,10.82
2018-11-12T07:33:45.786Z,10.75
2018-11-12T07:36:13.881Z,10.77
2018-11-12T07:38:42.046Z,10.82
2018-11-12T07:41:10.183Z,10.77
2018-11-12T07:43:38.301Z,10.78
2018-11-12T07:46:06.389Z,10.74
2018-11-12T07:48:34.602Z,10.85
2018-11-12T07:51:02.702Z,10.91
2018-11-12T07:53:30.833Z,10.80
2018-11-12T07:55:58.939Z,10.64
2018-11-12T07:58:27.178Z,10.67
2018-11-12T08:00:55.313Z,10.74
2018-11-12T08:03:23.625Z,10.72
2018-11-12T08:05:53.033Z,10.74
2018-11-12T08:08:21.530Z,10.72
2018-11-12T08:10:49.663Z,10.76
2018-11-12T08:13:17.778Z,10.68
2018-11-12T08:15:45.937Z,10.75
2018-11-12T08:18:14.055Z,10.81
2018-11-12T08:20:42.170Z,10.87
2018-11-12T08:23:10.297Z,10.88
2018-11-12T08:25:38.465Z,10.81
2018-11-12T08:28:06.595Z,10.93
2018-11-12T08:30:34.735Z,11.03
2018-11-12T08:33:02.956Z,10.99
2018-11-12T08:35:31.070Z,10.94
2018-11-12T08:37:59.503Z,10.99
2018-11-12T08:40:28.661Z,11.02
2018-11-12T08:42:56.725Z,11.07
2018-11-12T08:45:24.866Z,11.13
2018-11-12T08:47:54.152Z,11.12
2018-11-12T08:50:24.458Z,11.18
2018-11-12T08:52:53.337Z,11.14
2018-11-12T08:55:22.827Z,11.12
2018-11-12T08:57:54.045Z,11.07
2018-11-12T09:00:23.041Z,11.06
2018-11-12T09:02:51.272Z,10.97
2018-11-12T09:05:20.413Z,11.00
2018-11-12T09:07:50.021Z,10.90
2018-11-12T09:10:20.179Z,10.99
2018-11-12T09:12:48.309Z,11.01
2018-11-12T09:15:16.616Z,11.14
2018-11-12T09:17:45.709Z,11.15
2018-11-12T09:20:16.456Z,11.00
2018-11-12T09:22:44.667Z,11.00
2018-11-12T09:25:14.557Z,10.96
2018-11-12T09:27:42.677Z,10.88
2018-11-12T09:30:15.806Z,10.89
2018-11-12T09:32:44.302Z,11.00
2018-11-12T09:35:29.926Z,10.93
2018-11-12T09:37:58.738Z,10.92
2018-11-12T09:40:29.102Z,10.88
2018-11-12T09:42:57.275Z,10.93
2018-11-12T09:45:25.403Z,10.98
2018-11-12T09:47:53.641Z,11.02
2018-11-12T09:50:22.847Z,11.07
2018-11-12T09:52:52.124Z,11.07
2018-11-12T09:55:20.945Z,11.09
2018-11-12T09:57:50.551Z,11.08
2018-11-12T10:00:19.783Z,11.04
2018-11-12T10:02:49.222Z,11.04
2018-11-12T10:05:18.199Z,11.06
2018-11-12T10:07:47.566Z,11.14
2018-11-12T10:10:56.158Z,11.15
2018-11-12T10:13:27.082Z,11.08
2018-11-12T10:15:55.047Z,11.12
2018-11-12T10:18:21.144Z,11.16
2018-11-12T10:20:49.268Z,11.21
2018-11-12T10:23:17.785Z,11.23
2018-11-12T10:25:45.989Z,11.28
2018-11-12T10:28:14.272Z,11.30
2018-11-12T10:30:42.433Z,11.28
2018-11-12T10:33:10.533Z,11.24
2018-11-12T10:35:38.660Z,11.20
2018-11-12T10:38:07.394Z,11.19
2018-11-12T10:40:35.485Z,11.22
2018-11-12T10:43:03.590Z,11.23
2018-11-12T10:45:31.699Z,11.17
2018-11-12T10:47:59.892Z,11.26
2018-11-12T10:50:27.937Z,11.28
2018-11-12T10:52:56.067Z,11.16
2018-11-12T10:55:25.285Z,11.25
2018-11-12T10:57:53.610Z,11.22
2018-11-12T11:00:28.358Z,11.22
2018-11-12T11:03:03.250Z,11.24
2018-11-12T11:05:31.530Z,11.10
2018-11-12T11:07:59.691Z,11.10
2018-11-12T11:10:28.533Z,11.19
2018-11-12T11:12:57.900Z,11.18
2018-11-12T11:15:26.212Z,11.10
2018-11-12T11:17:54.301Z,11.10
2018-11-12T11:20:22.756Z,11.08
2018-11-12T11:22:50.881Z,11.10
2018-11-12T11:25:19.061Z,11.07
2018-11-12T11:27:47.210Z,10.97
2018-11-12T11:30:16.646Z,11.02
2018-11-12T11:32:45.023Z,11.01
2018-11-12T11:35:14.546Z,10.96
2018-11-12T11:37:42.675Z,11.06
2018-11-12T11:40:14.325Z,11.11
2018-11-12T11:42:42.433Z,11.09
2018-11-12T11:45:11.641Z,11.11
2018-11-12T11:47:40.532Z,11.00
2018-11-12T11:50:09.968Z,11.01
2018-11-12T11:52:38.078Z,11.03
2018-11-12T11:55:09.006Z,11.02
2018-11-12T11:57:37.266Z,11.00
2018-11-12T12:00:09.186Z,10.98
2018-11-12T12:02:37.325Z,11.15
2018-11-12T12:05:06.845Z,11.16
2018-11-12T12:07:35.018Z,11.21
2018-11-12T12:10:03.148Z,11.22
2018-11-12T12:12:31.325Z,11.11
2018-11-12T12:14:59.449Z,11.10
2018-11-12T12:17:27.906Z,11.16
2018-11-12T12:19:56.136Z,11.17
2018-11-12T12:22:24.210Z,11.18
2018-11-12T12:24:52.408Z,11.18
2018-11-12T12:27:20.556Z,11.23
2018-11-12T12:29:48.685Z,11.16
2018-11-12T12:32:16.811Z,11.21
2018-11-12T12:34:44.963Z,11.26
2018-11-12T12:37:13.333Z,11.18
2018-11-12T12:39:41.478Z,11.20
2018-11-12T12:42:09.604Z,11.20
2018-11-12T12:44:37.802Z,11.16
2018-11-12T12:47:06.154Z,11.25
2018-11-12T12:49:35.171Z,11.32
2018-11-12T12:52:03.634Z,11.37
2018-11-12T12:54:31.765Z,11.35
2018-11-12T12:56:59.877Z,11.39
2018-11-12T12:59:28.038Z,11.38
2018-11-12T13:01:56.238Z,11.34
2018-11-12T13:04:24.370Z,11.30
2018-11-12T13:06:52.517Z,11.38
2018-11-12T13:09:20.650Z,11.28
2018-11-12T13:11:48.781Z,11.26
2018-11-12T13:14:17.102Z,11.22
2018-11-12T13:16:45.145Z,11.24
2018-11-12T13:19:13.282Z,11.31
2018-11-12T13:21:41.466Z,11.37
2018-11-12T13:24:09.598Z,11.43
2018-11-12T13:26:37.999Z,11.48
2018-11-12T13:29:06.141Z,11.49
2018-11-12T13:31:34.294Z,11.64
2018-11-12T13:34:02.446Z,11.66
2018-11-12T13:36:30.622Z,11.62
2018-11-12T13:38:58.765Z,11.54
2018-11-12T13:41:26.885Z,11.61
2018-11-12T13:43:55.036Z,11.61
2018-11-12T13:46:27.329Z,11.65
2018-11-12T13:48:55.539Z,11.61
2018-11-12T13:51:23.664Z,11.68
2018-11-12T13:53:51.801Z,11.55
2018-11-12T13:56:19.887Z,11.68
2018-11-12T13:58:48.037Z,11.76
2018-11-12T14:01:16.174Z,11.79
2018-11-12T14:03:45.016Z,11.92
2018-11-12T14:06:13.129Z,11.95
2018-11-12T14:08:41.257Z,11.92
2018-11-12T14:11:09.389Z,11.95
2018-11-12T14:13:37.522Z,11.99
2018-11-12T14:16:05.917Z,11.95
2018-11-12T14:18:34.012Z,11.90
2018-11-12T14:21:02.336Z,11.97
2018-11-12T14:23:30.269Z,12.06
2018-11-12T14:25:58.395Z,12.09
2018-11-12T14:28:26.765Z,12.18
2018-11-12T14:30:54.872Z,12.27
2018-11-12T14:33:23.080Z,12.34
2018-11-12T14:35:51.207Z,12.25
2018-11-12T14:38:19.289Z,12.26
2018-11-12T14:40:47.433Z,12.28
2018-11-12T14:43:15.561Z,12.33
2018-11-12T14:45:43.702Z,12.33
2018-11-12T14:48:11.857Z,12.32
2018-11-12T14:50:40.203Z,12.33
2018-11-12T14:53:08.282Z,12.39
2018-11-12T14:55:36.417Z,12.37
2018-11-12T14:58:04.549Z,12.40
2018-11-12T15:00:32.741Z,12.33
2018-11-12T15:03:00.867Z,12.23
2018-11-12T15:05:29.012Z,12.20
2018-11-12T15:07:57.158Z,12.23
2018-11-12T15:10:25.277Z,12.19
2018-11-12T15:12:53.445Z,12.07
2018-11-12T15:15:21.611Z,12.08
2018-11-12T15:17:49.739Z,11.90
2018-11-12T15:20:19.046Z,12.05
2018-11-12T15:22:47.296Z,12.03
2018-11-12T15:25:17.135Z,12.05
2018-11-12T15:27:45.719Z,12.05
2018-11-12T15:30:16.255Z,12.08
2018-11-12T15:32:45.148Z,12.12
2018-11-12T15:35:13.830Z,12.10
2018-11-12T15:37:42.595Z,12.13
2018-11-12T15:40:11.313Z,12.17
2018-11-12T15:42:39.995Z,12.15
2018-11-12T15:45:10.444Z,12.22
2018-11-12T15:47:38.562Z,12.19
2018-11-12T15:50:11.965Z,12.22
2018-11-12T15:52:40.149Z,12.21
2018-11-12T15:55:08.794Z,12.33
2018-11-12T15:57:37.172Z,12.30
2018-11-12T16:00:06.676Z,12.26
2018-11-12T16:02:34.809Z,12.28
2018-11-12T16:05:02.977Z,12.24
2018-11-12T16:07:31.081Z,12.20
2018-11-12T16:09:59.254Z,12.25
2018-11-12T16:12:27.439Z,12.24
2018-11-12T16:14:55.705Z,12.17
2018-11-12T16:17:23.877Z,12.06
2018-11-12T16:19:52.045Z,12.02
2018-11-12T16:22:20.278Z,12.07
2018-11-12T16:24:48.439Z,12.12
2018-11-12T16:27:16.569Z,12.15
2018-11-12T16:29:44.728Z,12.14
2018-11-12T16:32:12.883Z,12.10
2018-11-12T16:34:41.194Z,12.20
2018-11-12T16:37:09.330Z,12.22
2018-11-12T16:39:37.466Z,12.16
2018-11-12T16:42:05.717Z,12.27
2018-11-12T16:44:33.853Z,12.28
2018-11-12T16:47:01.986Z,12.27
2018-11-12T16:49:30.130Z,12.29
2018-11-12T16:51:58.281Z,12.28
2018-11-12T16:54:26.409Z,12.21
2018-11-12T16:56:54.535Z,12.18
2018-11-12T16:59:22.673Z,12.17
2018-11-12T17:01:50.813Z,12.19
2018-11-12T17:04:18.946Z,12.24
2018-11-12T17:06:47.069Z,12.17
2018-11-12T17:09:16.131Z,12.21
2018-11-12T17:11:44.297Z,12.24
2018-11-12T17:14:12.397Z,12.25
2018-11-12T17:16:40.567Z,12.24
2018-11-12T17:19:08.929Z,12.19
2018-11-12T17:21:37.094Z,12.23
2018-11-12T17:24:05.361Z,12.26
2018-11-12T17:26:33.523Z,12.23
2018-11-12T17:29:01.677Z,12.08
2018-11-12T17:31:29.812Z,12.16
2018-11-12T17:38:57.889Z,11.99
2018-11-12T17:41:26.029Z,11.94
2018-11-12T17:43:54.205Z,11.86
2018-11-12T17:46:22.462Z,11.92
2018-11-12T17:48:50.718Z,11.86
2018-11-12T17:51:18.932Z,11.93
2018-11-12T17:53:47.061Z,11.78
2018-11-12T17:56:15.221Z,11.76
2018-11-12T17:58:43.350Z,11.67
2018-11-12T18:01:11.520Z,11.54
2018-11-12T18:03:40.649Z,11.53
2018-11-12T18:06:08.949Z,11.50
2018-11-12T18:08:37.106Z,11.50
2018-11-12T18:11:05.242Z,11.43
2018-11-12T18:13:33.420Z,11.41
2018-11-12T18:16:01.538Z,11.39
2018-11-12T18:18:29.736Z,11.32
2018-11-12T18:20:57.900Z,11.39
2018-11-12T18:23:26.221Z,11.32
2018-11-12T18:25:54.426Z,11.22
2018-11-12T18:28:22.633Z,11.21
2018-11-12T18:30:51.214Z,11.24
2018-11-12T18:33:19.161Z,11.28
2018-11-12T18:35:47.365Z,11.27
2018-11-12T18:38:15.552Z,11.10
2018-11-12T18:40:43.686Z,11.23
2018-11-12T18:43:11.966Z,11.16
2018-11-12T18:45:40.100Z,11.14
2018-11-12T18:48:08.245Z,11.07
2018-11-12T18:50:36.429Z,11.05
2018-11-12T18:53:04.674Z,11.09
2018-11-12T18:55:33.045Z,10.97
2018-11-12T18:58:01.189Z,11.04
2018-11-12T19:00:29.358Z,11.08
2018-11-12T19:02:57.574Z,11.14
2018-11-12T19:05:28.293Z,11.18
2018-11-12T19:07:57.939Z,11.01
2018-11-12T19:10:30.258Z,10.95
2018-11-12T19:12:58.504Z,10.99
2018-11-12T19:15:28.273Z,11.07
2018-11-12T19:17:59.149Z,11.04
2018-11-12T19:20:27.329Z,11.04
2018-11-12T19:22:55.625Z,11.00
2018-11-12T19:25:24.110Z,10.99
2018-11-12T19:27:52.282Z,11.05
2018-11-12T19:30:21.779Z,11.07
2018-11-12T19:32:49.940Z,10.94
2018-11-12T19:35:19.462Z,10.94
2018-11-12T19:37:47.640Z,10.90
2018-11-12T19:40:17.088Z,10.81
2018-11-12T19:42:46.241Z,10.79
2018-11-12T19:45:14.736Z,10.86
2018-11-12T19:47:43.080Z,10.93
2018-11-12T19:50:15.304Z,10.78
2018-11-12T19:52:44.812Z,10.82
2018-11-12T19:55:13.185Z,10.78
2018-11-12T19:57:41.578Z,10.78
2018-11-12T20:00:11.392Z,10.73
2018-11-12T20:02:39.897Z,10.62
2018-11-12T20:05:08.175Z,10.68
2018-11-12T20:07:36.617Z,10.66
2018-11-12T20:10:07.566Z,10.64
2018-11-12T20:12:35.725Z,10.67
2018-11-12T20:15:03.894Z,10.75
2018-11-12T20:17:32.040Z,10.77
2018-11-12T20:20:00.195Z,10.92
2018-11-12T20:22:28.363Z,10.87
2018-11-12T20:24:56.604Z,10.80
2018-11-12T20:27:24.739Z,10.76
2018-11-12T20:29:52.892Z,10.79
2018-11-12T20:32:21.356Z,10.88
2018-11-12T20:34:49.511Z,10.90
2018-11-12T20:37:17.642Z,10.71
2018-11-12T20:39:45.802Z,10.75
2018-11-12T20:42:13.950Z,10.80
2018-11-12T20:44:42.188Z,10.75
2018-11-12T20:47:10.330Z,10.69
2018-11-12T20:49:38.505Z,10.73
2018-11-12T20:52:06.678Z,10.67
2018-11-12T20:54:34.830Z,10.69
2018-11-12T20:57:03.025Z,10.66
2018-11-12T20:59:31.154Z,10.52
2018-11-12T21:01:59.291Z,10.48
2018-11-12T21:04:27.430Z,10.51
2018-11-12T21:06:55.609Z,10.47
2018-11-12T21:09:23.789Z,10.48
2018-11-12T21:11:52.022Z,10.54
2018-11-12T21:14:20.154Z,10.51
2018-11-12T21:16:48.302Z,10.44
2018-11-12T21:19:16.512Z,10.47
2018-11-12T21:21:44.651Z,10.46
2018-11-12T21:24:12.865Z,10.54
2018-11-12T21:26:41.020Z,10.54
2018-11-12T21:29:09.307Z,10.53
2018-11-12T21:31:37.436Z,10.50
2018-11-12T21:34:05.884Z,10.56
2018-11-12T21:36:34.429Z,10.48
2018-11-12T21:39:02.606Z,10.45
2018-11-12T21:41:30.742Z,10.46
2018-11-12T21:43:59.730Z,10.39
2018-11-12T21:46:27.936Z,10.39
2018-11-12T21:48:56.081Z,10.43
2018-11-12T21:51:24.272Z,10.36
2018-11-12T21:53:52.449Z,10.35
2018-11-12T21:56:20.630Z,10.37
2018-11-12T21:58:48.912Z,10.36
2018-11-12T22:01:17.211Z,10.34
2018-11-12T22:03:46.656Z,10.33
2018-11-12T22:06:14.806Z,10.39
2018-11-12T22:08:43.083Z,10.37
2018-11-12T22:11:11.184Z,10.35
2018-11-12T22:13:40.172Z,10.29
2018-11-12T22:16:08.498Z,10.25
2018-11-12T22:18:36.698Z,10.22
2018-11-12T22:21:05.026Z,10.23
2018-11-12T22:23:33.260Z,10.28
2018-11-12T22:26:01.430Z,10.31
2018-11-12T22:28:29.602Z,10.35
2018-11-12T22:30:57.813Z,10.41
2018-11-12T22:33:26.114Z,10.47
2018-11-12T22:35:54.318Z,10.52
2018-11-12T22:38:22.530Z,10.52
2018-11-12T22:40:50.673Z,10.52
2018-11-12T22:43:18.854Z,10.51
2018-11-12T22:45:47.059Z,10.50
2018-11-12T22:48:15.225Z,10.55
2018-11-12T22:50:43.441Z,10.59
2018-11-12T22:53:11.685Z,10.39
2018-11-12T22:55:39.922Z,10.35
2018-11-12T22:58:08.288Z,10.35
2018-11-12T23:00:39.085Z,10.32
2018-11-12T23:03:07.973Z,10.32
2018-11-12T23:05:36.242Z,10.27
2018-11-12T23:08:04.465Z,10.37
2018-11-12T23:10:32.694Z,10.36
2018-11-12T23:13:00.857Z,10.29
2018-11-12T23:15:29.043Z,10.25
2018-11-12T23:17:57.279Z,10.22
2018-11-12T23:20:27.127Z,10.23
2018-11-12T23:22:55.276Z,10.23
2018-11-12T23:25:23.455Z,10.15
2018-11-12T23:27:52.330Z,10.12
2018-11-12T23:30:21.942Z,10.10
2018-11-12T23:32:50.248Z,10.14
2018-11-12T23:35:22.720Z,10.16
2018-11-12T23:37:51.241Z,10.16
2018-11-12T23:40:19.462Z,10.13
2018-11-12T23:42:48.070Z,10.15
2018-11-12T23:45:16.214Z,10.13
2018-11-12T23:47:44.393Z,10.14
2018-11-12T23:50:14.903Z,10.11
2018-11-12T23:52:43.719Z,10.11
2018-11-12T23:55:12.287Z,10.19
2018-11-12T23:57:40.554Z,10.07
